sensor_id;sensor_type;location;lat;lon;timestamp;P1;durP1;ratioP1;P2;durP2;ratioP2
4323;SDS011;2175;51.018;6.994;2022-07-05T00:00:41;6.70;;;2.90;;
4323;SDS011;2175;51.018;6.994;2022-07-05T00:03:07;6.93;;;3.63;;
4323;SDS011;2175;51.018;6.994;2022-07-05T00:05:34;8.60;;;3.50;;
4323;SDS011;2175;51.018;6.994;2022-07-05T00:08:00;5.90;;;3.47;;
4323;SDS011;2175;51.018;6.994;2022-07-05T00:10:25;11.30;;;4.20;;
4323;SDS011;2175;51.018;6.994;2022-07-05T00:12:51;9.93;;;4.00;;
4323;SDS011;2175;51.018;6.994;2022-07-05T00:15:16;9.33;;;4.50;;
4323;SDS011;2175;51.018;6.994;2022-07-05T00:17:43;15.47;;;5.50;;
4323;SDS011;2175;51.018;6.994;2022-07-05T00:20:09;10.60;;;5.53;;
4323;SDS011;2175;51.018;6.994;2022-07-05T00:22:37;12.00;;;6.23;;
4323;SDS011;2175;51.018;6.994;2022-07-05T00:25:07;12.17;;;5.50;;
4323;SDS011;2175;51.018;6.994;2022-07-05T00:27:33;11.70;;;4.73;;
4323;SDS011;2175;51.018;6.994;2022-07-05T00:29:59;5.93;;;3.63;;
4323;SDS011;2175;51.018;6.994;2022-07-05T00:32:25;9.70;;;3.70;;
4323;SDS011;2175;51.018;6.994;2022-07-05T00:34:50;7.03;;;3.80;;
4323;SDS011;2175;51.018;6.994;2022-07-05T00:37:16;9.57;;;4.30;;
4323;SDS011;2175;51.018;6.994;2022-07-05T00:39:42;11.67;;;6.00;;
4323;SDS011;2175;51.018;6.994;2022-07-05T00:42:07;13.17;;;6.50;;
4323;SDS011;2175;51.018;6.994;2022-07-05T00:44:34;13.30;;;5.70;;
4323;SDS011;2175;51.018;6.994;2022-07-05T00:47:02;14.10;;;5.13;;
4323;SDS011;2175;51.018;6.994;2022-07-05T00:49:31;10.83;;;4.37;;
4323;SDS011;2175;51.018;6.994;2022-07-05T00:51:58;12.97;;;5.70;;
4323;SDS011;2175;51.018;6.994;2022-07-05T00:54:24;10.63;;;4.47;;
4323;SDS011;2175;51.018;6.994;2022-07-05T00:56:50;6.77;;;3.80;;
4323;SDS011;2175;51.018;6.994;2022-07-05T00:59:17;5.53;;;3.00;;
4323;SDS011;2175;51.018;6.994;2022-07-05T01:01:42;9.63;;;3.30;;
4323;SDS011;2175;51.018;6.994;2022-07-05T01:04:08;5.07;;;3.03;;
4323;SDS011;2175;51.018;6.994;2022-07-05T01:06:36;7.00;;;3.07;;
4323;SDS011;2175;51.018;6.994;2022-07-05T01:09:02;7.43;;;3.50;;
4323;SDS011;2175;51.018;6.994;2022-07-05T01:11:27;7.20;;;2.97;;
4323;SDS011;2175;51.018;6.994;2022-07-05T01:13:53;5.73;;;3.27;;
4323;SDS011;2175;51.018;6.994;2022-07-05T01:16:19;4.70;;;2.70;;
4323;SDS011;2175;51.018;6.994;2022-07-05T01:18:45;6.47;;;3.00;;
4323;SDS011;2175;51.018;6.994;2022-07-05T01:21:12;8.20;;;3.63;;
4323;SDS011;2175;51.018;6.994;2022-07-05T01:23:40;5.00;;;3.40;;
4323;SDS011;2175;51.018;6.994;2022-07-05T01:26:06;5.20;;;3.47;;
4323;SDS011;2175;51.018;6.994;2022-07-05T01:28:32;6.80;;;3.30;;
4323;SDS011;2175;51.018;6.994;2022-07-05T01:31:00;5.90;;;3.17;;
4323;SDS011;2175;51.018;6.994;2022-07-05T01:33:30;8.87;;;3.10;;
4323;SDS011;2175;51.018;6.994;2022-07-05T01:35:56;4.60;;;3.30;;
4323;SDS011;2175;51.018;6.994;2022-07-05T01:38:22;4.23;;;2.90;;
4323;SDS011;2175;51.018;6.994;2022-07-05T01:40:50;7.60;;;3.13;;
4323;SDS011;2175;51.018;6.994;2022-07-05T01:43:17;5.37;;;3.23;;
4323;SDS011;2175;51.018;6.994;2022-07-05T01:45:47;5.70;;;3.67;;
4323;SDS011;2175;51.018;6.994;2022-07-05T01:48:14;6.53;;;3.23;;
4323;SDS011;2175;51.018;6.994;2022-07-05T01:50:51;7.90;;;3.80;;
4323;SDS011;2175;51.018;6.994;2022-07-05T01:53:19;6.67;;;3.17;;
4323;SDS011;2175;51.018;6.994;2022-07-05T01:55:49;8.50;;;3.20;;
4323;SDS011;2175;51.018;6.994;2022-07-05T01:58:25;5.60;;;3.30;;
4323;SDS011;2175;51.018;6.994;2022-07-05T02:00:52;6.37;;;3.13;;
4323;SDS011;2175;51.018;6.994;2022-07-05T02:03:19;5.17;;;3.37;;
4323;SDS011;2175;51.018;6.994;2022-07-05T02:05:46;5.07;;;3.07;;
4323;SDS011;2175;51.018;6.994;2022-07-05T02:08:13;4.50;;;2.80;;
4323;SDS011;2175;51.018;6.994;2022-07-05T02:10:40;4.90;;;3.50;;
4323;SDS011;2175;51.018;6.994;2022-07-05T02:13:06;6.63;;;3.47;;
4323;SDS011;2175;51.018;6.994;2022-07-05T02:15:36;9.10;;;3.90;;
4323;SDS011;2175;51.018;6.994;2022-07-05T02:18:04;6.40;;;3.53;;
4323;SDS011;2175;51.018;6.994;2022-07-05T02:20:31;7.60;;;3.40;;
4323;SDS011;2175;51.018;6.994;2022-07-05T02:22:58;5.33;;;3.20;;
4323;SDS011;2175;51.018;6.994;2022-07-05T02:25:24;5.27;;;3.30;;
4323;SDS011;2175;51.018;6.994;2022-07-05T02:27:50;4.67;;;3.40;;
4323;SDS011;2175;51.018;6.994;2022-07-05T02:30:17;6.10;;;3.17;;
4323;SDS011;2175;51.018;6.994;2022-07-05T02:32:44;5.70;;;3.63;;
4323;SDS011;2175;51.018;6.994;2022-07-05T02:35:10;6.30;;;3.87;;
4323;SDS011;2175;51.018;6.994;2022-07-05T02:37:36;5.03;;;3.50;;
4323;SDS011;2175;51.018;6.994;2022-07-05T02:40:04;6.37;;;3.60;;
4323;SDS011;2175;51.018;6.994;2022-07-05T02:42:38;6.00;;;3.63;;
4323;SDS011;2175;51.018;6.994;2022-07-05T02:45:05;5.87;;;3.77;;
4323;SDS011;2175;51.018;6.994;2022-07-05T02:47:31;4.63;;;3.60;;
4323;SDS011;2175;51.018;6.994;2022-07-05T02:49:59;10.40;;;3.70;;
4323;SDS011;2175;51.018;6.994;2022-07-05T02:52:33;6.60;;;3.40;;
4323;SDS011;2175;51.018;6.994;2022-07-05T02:54:59;5.80;;;3.90;;
4323;SDS011;2175;51.018;6.994;2022-07-05T02:57:24;6.20;;;3.80;;
4323;SDS011;2175;51.018;6.994;2022-07-05T02:59:52;6.57;;;3.53;;
4323;SDS011;2175;51.018;6.994;2022-07-05T03:02:19;8.07;;;3.83;;
4323;SDS011;2175;51.018;6.994;2022-07-05T03:04:45;9.73;;;3.60;;
4323;SDS011;2175;51.018;6.994;2022-07-05T03:07:11;4.80;;;3.80;;
4323;SDS011;2175;51.018;6.994;2022-07-05T03:09:36;8.90;;;4.30;;
4323;SDS011;2175;51.018;6.994;2022-07-05T03:12:04;7.87;;;4.20;;
4323;SDS011;2175;51.018;6.994;2022-07-05T03:14:30;6.50;;;4.23;;
4323;SDS011;2175;51.018;6.994;2022-07-05T03:16:56;10.10;;;4.30;;
4323;SDS011;2175;51.018;6.994;2022-07-05T03:19:22;5.70;;;3.90;;
4323;SDS011;2175;51.018;6.994;2022-07-05T03:21:47;9.83;;;4.10;;
4323;SDS011;2175;51.018;6.994;2022-07-05T03:24:13;8.70;;;4.33;;
4323;SDS011;2175;51.018;6.994;2022-07-05T03:26:38;7.10;;;3.97;;
4323;SDS011;2175;51.018;6.994;2022-07-05T03:29:04;8.80;;;4.07;;
4323;SDS011;2175;51.018;6.994;2022-07-05T03:31:30;7.57;;;4.27;;
4323;SDS011;2175;51.018;6.994;2022-07-05T03:33:55;5.70;;;4.53;;
4323;SDS011;2175;51.018;6.994;2022-07-05T03:36:21;8.83;;;4.90;;
4323;SDS011;2175;51.018;6.994;2022-07-05T03:38:47;9.87;;;5.00;;
4323;SDS011;2175;51.018;6.994;2022-07-05T03:41:13;7.90;;;4.20;;
4323;SDS011;2175;51.018;6.994;2022-07-05T03:43:38;7.53;;;4.63;;
4323;SDS011;2175;51.018;6.994;2022-07-05T03:46:04;8.80;;;4.80;;
4323;SDS011;2175;51.018;6.994;2022-07-05T03:48:30;7.83;;;4.60;;
4323;SDS011;2175;51.018;6.994;2022-07-05T03:50:55;9.87;;;5.17;;
4323;SDS011;2175;51.018;6.994;2022-07-05T03:53:21;7.17;;;4.70;;
4323;SDS011;2175;51.018;6.994;2022-07-05T03:55:46;6.73;;;4.27;;
4323;SDS011;2175;51.018;6.994;2022-07-05T03:58:12;6.60;;;3.90;;
4323;SDS011;2175;51.018;6.994;2022-07-05T04:00:38;6.60;;;4.10;;
4323;SDS011;2175;51.018;6.994;2022-07-05T04:03:03;10.20;;;4.73;;
4323;SDS011;2175;51.018;6.994;2022-07-05T04:05:29;6.90;;;4.70;;
4323;SDS011;2175;51.018;6.994;2022-07-05T04:07:55;13.93;;;5.13;;
4323;SDS011;2175;51.018;6.994;2022-07-05T04:10:21;8.70;;;4.70;;
4323;SDS011;2175;51.018;6.994;2022-07-05T04:12:48;5.50;;;4.57;;
4323;SDS011;2175;51.018;6.994;2022-07-05T04:15:14;6.30;;;4.50;;
4323;SDS011;2175;51.018;6.994;2022-07-05T04:17:47;9.00;;;4.50;;
4323;SDS011;2175;51.018;6.994;2022-07-05T04:20:21;6.70;;;4.43;;
4323;SDS011;2175;51.018;6.994;2022-07-05T04:22:47;5.60;;;4.00;;
4323;SDS011;2175;51.018;6.994;2022-07-05T04:25:13;15.33;;;4.73;;
4323;SDS011;2175;51.018;6.994;2022-07-05T04:27:46;15.20;;;6.97;;
4323;SDS011;2175;51.018;6.994;2022-07-05T04:30:16;12.47;;;5.27;;
4323;SDS011;2175;51.018;6.994;2022-07-05T04:32:43;11.03;;;4.77;;
4323;SDS011;2175;51.018;6.994;2022-07-05T04:35:10;8.83;;;4.03;;
4323;SDS011;2175;51.018;6.994;2022-07-05T04:37:36;6.13;;;3.70;;
4323;SDS011;2175;51.018;6.994;2022-07-05T04:40:03;7.13;;;3.20;;
4323;SDS011;2175;51.018;6.994;2022-07-05T04:42:30;4.03;;;3.17;;
4323;SDS011;2175;51.018;6.994;2022-07-05T04:44:56;7.93;;;3.20;;
4323;SDS011;2175;51.018;6.994;2022-07-05T04:47:22;5.87;;;3.47;;
4323;SDS011;2175;51.018;6.994;2022-07-05T04:49:47;8.33;;;3.00;;
4323;SDS011;2175;51.018;6.994;2022-07-05T04:52:13;6.93;;;3.27;;
4323;SDS011;2175;51.018;6.994;2022-07-05T04:54:39;6.80;;;3.20;;
4323;SDS011;2175;51.018;6.994;2022-07-05T04:57:04;7.87;;;3.43;;
4323;SDS011;2175;51.018;6.994;2022-07-05T04:59:30;7.57;;;3.40;;
4323;SDS011;2175;51.018;6.994;2022-07-05T05:01:55;6.63;;;3.50;;
4323;SDS011;2175;51.018;6.994;2022-07-05T05:04:21;7.87;;;3.67;;
4323;SDS011;2175;51.018;6.994;2022-07-05T05:06:47;7.90;;;3.90;;
4323;SDS011;2175;51.018;6.994;2022-07-05T05:09:12;11.73;;;3.87;;
4323;SDS011;2175;51.018;6.994;2022-07-05T05:11:38;4.50;;;3.27;;
4323;SDS011;2175;51.018;6.994;2022-07-05T05:14:04;6.40;;;3.63;;
4323;SDS011;2175;51.018;6.994;2022-07-05T05:16:29;6.73;;;3.73;;
4323;SDS011;2175;51.018;6.994;2022-07-05T05:18:55;4.63;;;3.17;;
4323;SDS011;2175;51.018;6.994;2022-07-05T05:21:21;6.33;;;3.93;;
4323;SDS011;2175;51.018;6.994;2022-07-05T05:23:47;7.47;;;3.67;;
4323;SDS011;2175;51.018;6.994;2022-07-05T05:26:13;7.47;;;3.70;;
4323;SDS011;2175;51.018;6.994;2022-07-05T05:28:39;3.80;;;3.23;;
4323;SDS011;2175;51.018;6.994;2022-07-05T05:31:05;5.23;;;3.23;;
4323;SDS011;2175;51.018;6.994;2022-07-05T05:33:31;4.70;;;3.47;;
4323;SDS011;2175;51.018;6.994;2022-07-05T05:35:56;10.97;;;3.40;;
4323;SDS011;2175;51.018;6.994;2022-07-05T05:38:22;7.60;;;3.93;;
4323;SDS011;2175;51.018;6.994;2022-07-05T05:40:48;9.27;;;3.70;;
4323;SDS011;2175;51.018;6.994;2022-07-05T05:43:14;6.13;;;2.97;;
4323;SDS011;2175;51.018;6.994;2022-07-05T05:45:39;5.37;;;3.20;;
4323;SDS011;2175;51.018;6.994;2022-07-05T05:48:05;4.07;;;2.70;;
4323;SDS011;2175;51.018;6.994;2022-07-05T05:50:32;6.50;;;3.00;;
4323;SDS011;2175;51.018;6.994;2022-07-05T05:52:59;5.17;;;3.00;;
4323;SDS011;2175;51.018;6.994;2022-07-05T05:55:25;5.57;;;3.00;;
4323;SDS011;2175;51.018;6.994;2022-07-05T05:57:52;14.53;;;2.70;;
4323;SDS011;2175;51.018;6.994;2022-07-05T06:00:18;5.43;;;3.20;;
4323;SDS011;2175;51.018;6.994;2022-07-05T06:02:45;9.43;;;2.70;;
4323;SDS011;2175;51.018;6.994;2022-07-05T06:05:12;8.10;;;2.53;;
4323;SDS011;2175;51.018;6.994;2022-07-05T06:10:14;6.33;;;2.50;;
4323;SDS011;2175;51.018;6.994;2022-07-05T06:12:41;5.10;;;2.57;;
4323;SDS011;2175;51.018;6.994;2022-07-05T06:15:06;6.77;;;2.83;;
4323;SDS011;2175;51.018;6.994;2022-07-05T06:17:39;5.33;;;2.50;;
4323;SDS011;2175;51.018;6.994;2022-07-05T06:20:08;7.90;;;2.63;;
4323;SDS011;2175;51.018;6.994;2022-07-05T06:22:35;3.90;;;2.70;;
4323;SDS011;2175;51.018;6.994;2022-07-05T06:25:02;7.67;;;2.80;;
4323;SDS011;2175;51.018;6.994;2022-07-05T06:27:28;4.90;;;3.10;;
4323;SDS011;2175;51.018;6.994;2022-07-05T06:29:54;8.67;;;3.20;;
4323;SDS011;2175;51.018;6.994;2022-07-05T06:32:19;4.13;;;2.57;;
4323;SDS011;2175;51.018;6.994;2022-07-05T06:34:45;3.50;;;2.30;;
4323;SDS011;2175;51.018;6.994;2022-07-05T06:37:11;5.03;;;2.70;;
4323;SDS011;2175;51.018;6.994;2022-07-05T06:39:37;5.07;;;2.77;;
4323;SDS011;2175;51.018;6.994;2022-07-05T06:42:03;7.10;;;2.73;;
4323;SDS011;2175;51.018;6.994;2022-07-05T06:44:28;5.87;;;2.90;;
4323;SDS011;2175;51.018;6.994;2022-07-05T06:46:54;6.50;;;2.70;;
4323;SDS011;2175;51.018;6.994;2022-07-05T06:49:20;6.00;;;2.80;;
4323;SDS011;2175;51.018;6.994;2022-07-05T06:51:45;6.57;;;2.63;;
4323;SDS011;2175;51.018;6.994;2022-07-05T06:54:11;4.93;;;2.90;;
4323;SDS011;2175;51.018;6.994;2022-07-05T06:56:36;8.63;;;3.20;;
4323;SDS011;2175;51.018;6.994;2022-07-05T06:59:02;5.10;;;3.13;;
4323;SDS011;2175;51.018;6.994;2022-07-05T07:01:27;6.40;;;2.83;;
4323;SDS011;2175;51.018;6.994;2022-07-05T07:03:53;8.43;;;3.30;;
4323;SDS011;2175;51.018;6.994;2022-07-05T07:06:19;5.40;;;2.50;;
4323;SDS011;2175;51.018;6.994;2022-07-05T07:08:46;4.80;;;3.10;;
4323;SDS011;2175;51.018;6.994;2022-07-05T07:11:30;11.97;;;4.43;;
4323;SDS011;2175;51.018;6.994;2022-07-05T07:13:56;15.00;;;5.77;;
4323;SDS011;2175;51.018;6.994;2022-07-05T07:16:21;9.10;;;3.90;;
4323;SDS011;2175;51.018;6.994;2022-07-05T07:18:47;9.20;;;3.80;;
4323;SDS011;2175;51.018;6.994;2022-07-05T07:21:13;9.73;;;3.33;;
4323;SDS011;2175;51.018;6.994;2022-07-05T07:23:38;4.30;;;2.40;;
4323;SDS011;2175;51.018;6.994;2022-07-05T07:26:04;3.53;;;2.30;;
4323;SDS011;2175;51.018;6.994;2022-07-05T07:28:29;5.77;;;3.00;;
4323;SDS011;2175;51.018;6.994;2022-07-05T07:30:55;4.50;;;2.90;;
4323;SDS011;2175;51.018;6.994;2022-07-05T07:33:21;4.67;;;2.77;;
4323;SDS011;2175;51.018;6.994;2022-07-05T07:35:46;6.00;;;2.80;;
4323;SDS011;2175;51.018;6.994;2022-07-05T07:38:12;9.10;;;2.83;;
4323;SDS011;2175;51.018;6.994;2022-07-05T07:40:38;6.80;;;3.30;;
4323;SDS011;2175;51.018;6.994;2022-07-05T07:43:03;19.23;;;3.67;;
4323;SDS011;2175;51.018;6.994;2022-07-05T07:45:29;8.83;;;3.53;;
4323;SDS011;2175;51.018;6.994;2022-07-05T07:47:56;6.20;;;3.63;;
4323;SDS011;2175;51.018;6.994;2022-07-05T07:50:22;8.80;;;3.60;;
4323;SDS011;2175;51.018;6.994;2022-07-05T07:52:47;12.33;;;4.27;;
4323;SDS011;2175;51.018;6.994;2022-07-05T07:55:13;12.60;;;4.87;;
4323;SDS011;2175;51.018;6.994;2022-07-05T07:57:40;8.83;;;3.73;;
4323;SDS011;2175;51.018;6.994;2022-07-05T08:00:06;5.67;;;2.90;;
4323;SDS011;2175;51.018;6.994;2022-07-05T08:02:32;7.90;;;3.50;;
4323;SDS011;2175;51.018;6.994;2022-07-05T08:04:58;9.90;;;3.20;;
4323;SDS011;2175;51.018;6.994;2022-07-05T08:07:24;17.27;;;5.23;;
4323;SDS011;2175;51.018;6.994;2022-07-05T08:09:49;11.23;;;4.70;;
4323;SDS011;2175;51.018;6.994;2022-07-05T08:12:16;6.50;;;3.20;;
4323;SDS011;2175;51.018;6.994;2022-07-05T08:14:42;8.57;;;3.50;;
4323;SDS011;2175;51.018;6.994;2022-07-05T08:17:07;12.10;;;3.87;;
4323;SDS011;2175;51.018;6.994;2022-07-05T08:19:34;7.67;;;3.37;;
4323;SDS011;2175;51.018;6.994;2022-07-05T08:22:18;8.93;;;2.90;;
4323;SDS011;2175;51.018;6.994;2022-07-05T08:24:44;11.60;;;2.90;;
4323;SDS011;2175;51.018;6.994;2022-07-05T08:27:10;7.60;;;4.07;;
4323;SDS011;2175;51.018;6.994;2022-07-05T08:29:36;6.03;;;3.50;;
4323;SDS011;2175;51.018;6.994;2022-07-05T08:32:02;5.40;;;2.80;;
4323;SDS011;2175;51.018;6.994;2022-07-05T08:34:29;7.30;;;3.30;;
4323;SDS011;2175;51.018;6.994;2022-07-05T08:36:54;7.90;;;3.47;;
4323;SDS011;2175;51.018;6.994;2022-07-05T08:39:20;8.80;;;3.50;;
4323;SDS011;2175;51.018;6.994;2022-07-05T08:41:48;6.37;;;3.40;;
4323;SDS011;2175;51.018;6.994;2022-07-05T08:44:15;15.33;;;4.20;;
4323;SDS011;2175;51.018;6.994;2022-07-05T08:46:44;5.50;;;4.17;;
4323;SDS011;2175;51.018;6.994;2022-07-05T08:49:11;11.20;;;4.80;;
4323;SDS011;2175;51.018;6.994;2022-07-05T08:51:40;6.90;;;3.87;;
4323;SDS011;2175;51.018;6.994;2022-07-05T08:54:10;6.43;;;4.47;;
4323;SDS011;2175;51.018;6.994;2022-07-05T08:56:37;13.87;;;5.53;;
4323;SDS011;2175;51.018;6.994;2022-07-05T08:59:05;10.57;;;5.60;;
4323;SDS011;2175;51.018;6.994;2022-07-05T09:01:31;17.30;;;6.63;;
4323;SDS011;2175;51.018;6.994;2022-07-05T09:04:00;11.30;;;5.20;;
4323;SDS011;2175;51.018;6.994;2022-07-05T09:06:29;9.40;;;5.17;;
4323;SDS011;2175;51.018;6.994;2022-07-05T09:08:58;8.30;;;4.47;;
4323;SDS011;2175;51.018;6.994;2022-07-05T09:11:25;11.40;;;3.80;;
4323;SDS011;2175;51.018;6.994;2022-07-05T09:14:00;9.13;;;3.93;;
4323;SDS011;2175;51.018;6.994;2022-07-05T09:16:28;6.47;;;3.80;;
4323;SDS011;2175;51.018;6.994;2022-07-05T09:18:54;7.37;;;3.83;;
4323;SDS011;2175;51.018;6.994;2022-07-05T09:21:24;9.50;;;3.97;;
4323;SDS011;2175;51.018;6.994;2022-07-05T09:26:31;8.70;;;4.10;;
4323;SDS011;2175;51.018;6.994;2022-07-05T09:28:57;6.83;;;3.03;;
4323;SDS011;2175;51.018;6.994;2022-07-05T09:31:26;10.00;;;4.10;;
4323;SDS011;2175;51.018;6.994;2022-07-05T09:33:53;5.40;;;2.90;;
4323;SDS011;2175;51.018;6.994;2022-07-05T09:36:19;15.27;;;3.73;;
4323;SDS011;2175;51.018;6.994;2022-07-05T09:38:50;6.87;;;3.57;;
4323;SDS011;2175;51.018;6.994;2022-07-05T09:41:19;6.40;;;2.90;;
4323;SDS011;2175;51.018;6.994;2022-07-05T09:43:45;8.93;;;4.10;;
4323;SDS011;2175;51.018;6.994;2022-07-05T09:46:10;12.17;;;6.00;;
4323;SDS011;2175;51.018;6.994;2022-07-05T09:48:50;7.33;;;3.30;;
4323;SDS011;2175;51.018;6.994;2022-07-05T09:51:17;4.67;;;2.43;;
4323;SDS011;2175;51.018;6.994;2022-07-05T09:53:46;6.50;;;2.30;;
4323;SDS011;2175;51.018;6.994;2022-07-05T09:56:14;5.00;;;2.90;;
4323;SDS011;2175;51.018;6.994;2022-07-05T09:58:40;4.97;;;2.70;;
4323;SDS011;2175;51.018;6.994;2022-07-05T10:03:52;9.37;;;3.27;;
4323;SDS011;2175;51.018;6.994;2022-07-05T10:06:19;7.53;;;2.83;;
4323;SDS011;2175;51.018;6.994;2022-07-05T10:08:46;5.73;;;3.30;;
4323;SDS011;2175;51.018;6.994;2022-07-05T10:11:13;7.43;;;3.90;;
4323;SDS011;2175;51.018;6.994;2022-07-05T10:13:39;8.17;;;3.80;;
4323;SDS011;2175;51.018;6.994;2022-07-05T10:16:05;9.70;;;3.40;;
4323;SDS011;2175;51.018;6.994;2022-07-05T10:18:31;6.80;;;2.47;;
4323;SDS011;2175;51.018;6.994;2022-07-05T10:20:59;4.20;;;2.70;;
4323;SDS011;2175;51.018;6.994;2022-07-05T10:23:26;8.60;;;3.37;;
4323;SDS011;2175;51.018;6.994;2022-07-05T10:25:53;5.90;;;2.80;;
4323;SDS011;2175;51.018;6.994;2022-07-05T10:28:20;15.10;;;4.50;;
4323;SDS011;2175;51.018;6.994;2022-07-05T10:30:49;5.80;;;3.37;;
4323;SDS011;2175;51.018;6.994;2022-07-05T10:33:17;5.40;;;2.57;;
4323;SDS011;2175;51.018;6.994;2022-07-05T10:35:50;3.93;;;1.90;;
4323;SDS011;2175;51.018;6.994;2022-07-05T10:38:15;4.80;;;2.40;;
4323;SDS011;2175;51.018;6.994;2022-07-05T10:40:42;7.50;;;2.97;;
4323;SDS011;2175;51.018;6.994;2022-07-05T10:43:12;8.33;;;3.33;;
4323;SDS011;2175;51.018;6.994;2022-07-05T10:45:39;8.07;;;3.50;;
4323;SDS011;2175;51.018;6.994;2022-07-05T10:53:19;10.50;;;2.80;;
4323;SDS011;2175;51.018;6.994;2022-07-05T10:55:51;5.27;;;2.60;;
4323;SDS011;2175;51.018;6.994;2022-07-05T10:58:21;5.73;;;2.67;;
4323;SDS011;2175;51.018;6.994;2022-07-05T11:00:48;6.10;;;3.40;;
4323;SDS011;2175;51.018;6.994;2022-07-05T11:03:41;12.83;;;3.97;;
4323;SDS011;2175;51.018;6.994;2022-07-05T11:06:09;5.80;;;2.60;;
4323;SDS011;2175;51.018;6.994;2022-07-05T11:13:58;8.57;;;3.97;;
4323;SDS011;2175;51.018;6.994;2022-07-05T11:16:26;15.63;;;4.80;;
4323;SDS011;2175;51.018;6.994;2022-07-05T11:18:52;15.47;;;6.10;;
4323;SDS011;2175;51.018;6.994;2022-07-05T11:24:32;15.20;;;5.40;;
4323;SDS011;2175;51.018;6.994;2022-07-05T11:26:59;10.73;;;3.53;;
4323;SDS011;2175;51.018;6.994;2022-07-05T11:32:16;6.00;;;2.93;;
4323;SDS011;2175;51.018;6.994;2022-07-05T11:35:13;8.20;;;3.63;;
4323;SDS011;2175;51.018;6.994;2022-07-05T11:40:33;10.73;;;2.60;;
4323;SDS011;2175;51.018;6.994;2022-07-05T11:43:01;4.20;;;2.67;;
4323;SDS011;2175;51.018;6.994;2022-07-05T11:45:59;5.47;;;2.97;;
4323;SDS011;2175;51.018;6.994;2022-07-05T11:48:26;10.33;;;3.00;;
4323;SDS011;2175;51.018;6.994;2022-07-05T11:50:53;4.20;;;2.43;;
4323;SDS011;2175;51.018;6.994;2022-07-05T11:53:28;5.27;;;2.90;;
4323;SDS011;2175;51.018;6.994;2022-07-05T11:55:57;9.23;;;3.33;;
4323;SDS011;2175;51.018;6.994;2022-07-05T11:58:31;7.10;;;2.73;;
4323;SDS011;2175;51.018;6.994;2022-07-05T12:01:00;3.70;;;2.10;;
4323;SDS011;2175;51.018;6.994;2022-07-05T12:03:26;8.23;;;2.43;;
4323;SDS011;2175;51.018;6.994;2022-07-05T12:05:52;9.47;;;4.40;;
4323;SDS011;2175;51.018;6.994;2022-07-05T12:08:21;5.80;;;3.20;;
4323;SDS011;2175;51.018;6.994;2022-07-05T12:10:48;6.00;;;3.00;;
4323;SDS011;2175;51.018;6.994;2022-07-05T12:13:45;7.07;;;3.10;;
4323;SDS011;2175;51.018;6.994;2022-07-05T12:16:12;4.67;;;3.07;;
4323;SDS011;2175;51.018;6.994;2022-07-05T12:18:46;3.53;;;2.13;;
4323;SDS011;2175;51.018;6.994;2022-07-05T12:21:13;6.13;;;2.47;;
4323;SDS011;2175;51.018;6.994;2022-07-05T12:23:41;7.30;;;3.40;;
4323;SDS011;2175;51.018;6.994;2022-07-05T12:26:08;11.20;;;3.50;;
4323;SDS011;2175;51.018;6.994;2022-07-05T12:28:34;10.70;;;3.07;;
4323;SDS011;2175;51.018;6.994;2022-07-05T12:31:23;10.10;;;3.20;;
4323;SDS011;2175;51.018;6.994;2022-07-05T12:33:50;7.30;;;2.60;;
4323;SDS011;2175;51.018;6.994;2022-07-05T12:36:18;6.93;;;3.63;;
4323;SDS011;2175;51.018;6.994;2022-07-05T12:38:50;5.33;;;3.50;;
4323;SDS011;2175;51.018;6.994;2022-07-05T12:41:23;4.90;;;1.90;;
4323;SDS011;2175;51.018;6.994;2022-07-05T12:43:50;4.03;;;2.43;;
4323;SDS011;2175;51.018;6.994;2022-07-05T12:46:21;3.80;;;2.37;;
4323;SDS011;2175;51.018;6.994;2022-07-05T12:49:02;4.03;;;2.30;;
4323;SDS011;2175;51.018;6.994;2022-07-05T12:51:34;6.77;;;3.00;;
4323;SDS011;2175;51.018;6.994;2022-07-05T12:54:03;7.33;;;3.60;;
4323;SDS011;2175;51.018;6.994;2022-07-05T12:57:06;11.60;;;5.27;;
4323;SDS011;2175;51.018;6.994;2022-07-05T13:00:01;5.00;;;2.80;;
4323;SDS011;2175;51.018;6.994;2022-07-05T13:02:40;5.80;;;2.90;;
4323;SDS011;2175;51.018;6.994;2022-07-05T13:05:20;9.33;;;3.33;;
4323;SDS011;2175;51.018;6.994;2022-07-05T13:07:48;6.13;;;2.47;;
4323;SDS011;2175;51.018;6.994;2022-07-05T13:10:20;6.37;;;2.90;;
4323;SDS011;2175;51.018;6.994;2022-07-05T13:12:47;3.53;;;2.10;;
4323;SDS011;2175;51.018;6.994;2022-07-05T13:15:14;8.57;;;2.60;;
4323;SDS011;2175;51.018;6.994;2022-07-05T13:17:41;8.93;;;3.60;;
4323;SDS011;2175;51.018;6.994;2022-07-05T13:20:10;7.40;;;3.73;;
4323;SDS011;2175;51.018;6.994;2022-07-05T13:22:37;7.30;;;3.43;;
4323;SDS011;2175;51.018;6.994;2022-07-05T13:25:03;8.83;;;3.30;;
4323;SDS011;2175;51.018;6.994;2022-07-05T13:27:32;2.70;;;2.20;;
4323;SDS011;2175;51.018;6.994;2022-07-05T13:30:09;8.10;;;4.03;;
4323;SDS011;2175;51.018;6.994;2022-07-05T13:32:36;13.10;;;3.97;;
4323;SDS011;2175;51.018;6.994;2022-07-05T13:35:01;14.97;;;3.83;;
4323;SDS011;2175;51.018;6.994;2022-07-05T13:37:28;9.17;;;3.17;;
4323;SDS011;2175;51.018;6.994;2022-07-05T13:39:54;7.00;;;2.67;;
4323;SDS011;2175;51.018;6.994;2022-07-05T13:42:19;4.30;;;2.20;;
4323;SDS011;2175;51.018;6.994;2022-07-05T13:44:45;4.80;;;2.70;;
4323;SDS011;2175;51.018;6.994;2022-07-05T13:47:11;12.57;;;3.70;;
4323;SDS011;2175;51.018;6.994;2022-07-05T13:49:36;10.47;;;3.17;;
4323;SDS011;2175;51.018;6.994;2022-07-05T13:52:05;9.67;;;3.70;;
4323;SDS011;2175;51.018;6.994;2022-07-05T13:54:31;10.10;;;3.33;;
4323;SDS011;2175;51.018;6.994;2022-07-05T13:56:56;5.47;;;2.60;;
4323;SDS011;2175;51.018;6.994;2022-07-05T13:59:22;3.90;;;2.40;;
4323;SDS011;2175;51.018;6.994;2022-07-05T14:01:47;10.97;;;4.17;;
4323;SDS011;2175;51.018;6.994;2022-07-05T14:04:13;9.10;;;3.33;;
4323;SDS011;2175;51.018;6.994;2022-07-05T14:06:39;13.50;;;5.10;;
4323;SDS011;2175;51.018;6.994;2022-07-05T14:09:05;7.20;;;3.23;;
4323;SDS011;2175;51.018;6.994;2022-07-05T14:11:30;6.43;;;4.30;;
4323;SDS011;2175;51.018;6.994;2022-07-05T14:13:56;8.70;;;5.03;;
4323;SDS011;2175;51.018;6.994;2022-07-05T14:16:22;6.00;;;3.73;;
4323;SDS011;2175;51.018;6.994;2022-07-05T14:18:48;7.73;;;4.13;;
4323;SDS011;2175;51.018;6.994;2022-07-05T14:21:15;8.40;;;3.10;;
4323;SDS011;2175;51.018;6.994;2022-07-05T14:23:42;4.23;;;3.00;;
4323;SDS011;2175;51.018;6.994;2022-07-05T14:26:12;4.50;;;2.37;;
4323;SDS011;2175;51.018;6.994;2022-07-05T14:28:49;4.77;;;2.23;;
4323;SDS011;2175;51.018;6.994;2022-07-05T14:31:16;7.00;;;3.03;;
4323;SDS011;2175;51.018;6.994;2022-07-05T14:33:41;2.70;;;2.20;;
4323;SDS011;2175;51.018;6.994;2022-07-05T14:36:25;4.87;;;2.83;;
4323;SDS011;2175;51.018;6.994;2022-07-05T14:39:10;14.17;;;3.53;;
4323;SDS011;2175;51.018;6.994;2022-07-05T14:41:39;6.33;;;2.53;;
4323;SDS011;2175;51.018;6.994;2022-07-05T14:44:05;6.93;;;3.00;;
4323;SDS011;2175;51.018;6.994;2022-07-05T14:46:30;5.67;;;2.90;;
4323;SDS011;2175;51.018;6.994;2022-07-05T14:49:03;4.77;;;3.27;;
4323;SDS011;2175;51.018;6.994;2022-07-05T14:51:29;7.40;;;3.13;;
4323;SDS011;2175;51.018;6.994;2022-07-05T14:53:54;4.87;;;2.30;;
4323;SDS011;2175;51.018;6.994;2022-07-05T14:56:20;6.07;;;2.97;;
4323;SDS011;2175;51.018;6.994;2022-07-05T14:58:45;7.47;;;3.37;;
4323;SDS011;2175;51.018;6.994;2022-07-05T15:01:13;6.33;;;3.20;;
4323;SDS011;2175;51.018;6.994;2022-07-05T15:03:40;8.30;;;3.50;;
4323;SDS011;2175;51.018;6.994;2022-07-05T15:09:02;10.73;;;3.27;;
4323;SDS011;2175;51.018;6.994;2022-07-05T15:11:27;17.13;;;4.30;;
4323;SDS011;2175;51.018;6.994;2022-07-05T15:13:54;12.33;;;3.83;;
4323;SDS011;2175;51.018;6.994;2022-07-05T15:16:20;10.00;;;2.73;;
4323;SDS011;2175;51.018;6.994;2022-07-05T15:18:45;10.70;;;3.40;;
4323;SDS011;2175;51.018;6.994;2022-07-05T15:21:11;15.30;;;4.07;;
4323;SDS011;2175;51.018;6.994;2022-07-05T15:23:37;11.17;;;3.80;;
4323;SDS011;2175;51.018;6.994;2022-07-05T15:26:02;14.43;;;6.10;;
4323;SDS011;2175;51.018;6.994;2022-07-05T15:28:28;15.77;;;6.37;;
4323;SDS011;2175;51.018;6.994;2022-07-05T15:30:53;11.10;;;4.77;;
4323;SDS011;2175;51.018;6.994;2022-07-05T15:33:21;7.57;;;2.57;;
4323;SDS011;2175;51.018;6.994;2022-07-05T15:35:53;5.70;;;2.33;;
4323;SDS011;2175;51.018;6.994;2022-07-05T15:38:22;3.50;;;2.50;;
4323;SDS011;2175;51.018;6.994;2022-07-05T15:40:54;3.77;;;2.53;;
4323;SDS011;2175;51.018;6.994;2022-07-05T15:43:21;5.07;;;2.90;;
4323;SDS011;2175;51.018;6.994;2022-07-05T15:45:50;7.90;;;2.90;;